Time,TemperatureF,DewpointF,PressureIn,WindDirection,WindDirectionDegrees,WindSpeedMPH,WindSpeedGustMPH,Humidity,HourlyPrecipIn,Conditions,Clouds,dailyrainin,SoftwareType,DateUTC
2013-09-29 00:06:00,54.1,40.1,30.24,WSW,247,0.0,0.0,59,0.00,,,0.00,WUHU21636XXSP,2013-09-29 05:06:00,
2013-09-29 00:16:00,53.8,39.7,30.24,WSW,247,0.0,0.0,59,0.00,,,0.00,WUHU21636XXSP,2013-09-29 05:16:00,
2013-09-29 00:26:00,53.4,39.4,30.24,WSW,247,0.0,0.0,59,0.00,,,0.00,WUHU21636XXSP,2013-09-29 05:26:00,
2013-09-29 00:36:00,53.2,39.7,30.24,WSW,247,0.0,0.0,60,0.00,,,0.00,WUHU21636XXSP,2013-09-29 05:36:00,
2013-09-29 00:46:00,53.1,39.6,30.23,WSW,247,0.0,0.0,60,0.00,,,0.00,WUHU21636XXSP,2013-09-29 05:46:00,
2013-09-29 00:56:00,52.9,39.7,30.24,WSW,247,0.0,0.0,61,0.00,,,0.00,WUHU21636XXSP,2013-09-29 05:56:00,
2013-09-29 01:06:00,52.7,40.3,30.24,WSW,247,0.0,0.0,63,0.00,,,0.00,WUHU21636XXSP,2013-09-29 06:06:00,
2013-09-29 01:16:00,52.5,39.7,30.23,WSW,247,0.0,0.0,63,0.00,,,0.00,WUHU21636XXSP,2013-09-29 06:16:00,
2013-09-29 01:26:00,52.5,39.7,30.24,WSW,247,0.0,0.0,63,0.00,,,0.00,WUHU21636XXSP,2013-09-29 06:26:00,
2013-09-29 01:36:00,52.3,40.8,30.24,WSW,247,0.0,0.0,65,0.00,,,0.00,WUHU21636XXSP,2013-09-29 06:36:00,
2013-09-29 01:46:00,52.0,40.8,30.23,WSW,247,0.0,0.0,66,0.00,,,0.00,WUHU21636XXSP,2013-09-29 06:46:00,
2013-09-29 01:56:00,52.0,40.8,30.24,WSW,247,0.0,0.0,66,0.00,,,0.00,WUHU21636XXSP,2013-09-29 06:56:00,
2013-09-29 02:06:00,51.6,40.5,30.24,WSW,247,0.0,0.0,66,0.00,,,0.00,WUHU21636XXSP,2013-09-29 07:06:00,
2013-09-29 02:16:00,51.4,40.8,30.24,WSW,247,0.0,0.0,67,0.00,,,0.00,WUHU21636XXSP,2013-09-29 07:16:00,
2013-09-29 02:26:00,51.1,40.5,30.24,WSW,247,0.0,0.0,67,0.00,,,0.00,WUHU21636XXSP,2013-09-29 07:26:00,
2013-09-29 02:36:00,50.7,40.1,30.24,WSW,247,0.0,0.0,67,0.00,,,0.00,WUHU21636XXSP,2013-09-29 07:36:00,
2013-09-29 02:46:00,50.5,40.3,30.24,WSW,247,0.0,0.0,68,0.00,,,0.00,WUHU21636XXSP,2013-09-29 07:46:00,
2013-09-29 02:56:00,50.5,40.3,30.24,WSW,247,0.0,0.0,69,0.00,,,0.00,WUHU21636XXSP,2013-09-29 07:56:00,
2013-09-29 03:06:00,50.4,40.5,30.23,WSW,247,0.0,0.0,69,0.00,,,0.00,WUHU21636XXSP,2013-09-29 08:06:00,
2013-09-29 03:16:00,50.2,40.3,30.22,WSW,247,0.0,0.0,69,0.00,,,0.00,WUHU21636XXSP,2013-09-29 08:16:00,
2013-09-29 03:26:00,50.0,39.7,30.23,WSW,247,0.0,0.0,68,0.00,,,0.00,WUHU21636XXSP,2013-09-29 08:26:00,
2013-09-29 03:36:00,50.0,40.1,30.22,WSW,247,0.0,0.0,69,0.00,,,0.00,WUHU21636XXSP,2013-09-29 08:36:00,
2013-09-29 03:46:00,49.8,39.9,30.22,WSW,247,0.0,0.0,69,0.00,,,0.00,WUHU21636XXSP,2013-09-29 08:46:00,
2013-09-29 03:56:00,49.6,39.4,30.21,WSW,247,0.0,0.0,68,0.00,,,0.00,WUHU21636XXSP,2013-09-29 08:56:00,
2013-09-29 04:06:00,49.3,38.7,30.21,WSW,247,0.0,0.0,68,0.00,,,0.00,WUHU21636XXSP,2013-09-29 09:06:00,
2013-09-29 04:16:00,48.9,38.7,30.21,WSW,247,0.0,0.0,68,0.00,,,0.00,WUHU21636XXSP,2013-09-29 09:16:00,
2013-09-29 04:26:00,48.6,38.3,30.21,WSW,247,0.0,0.0,68,0.00,,,0.00,WUHU21636XXSP,2013-09-29 09:26:00,
2013-09-29 04:36:00,48.4,38.1,30.21,WSW,247,0.0,0.6,68,0.00,,,0.00,WUHU21636XXSP,2013-09-29 09:36:00,
2013-09-29 04:46:00,48.0,37.8,30.21,WSW,247,1.1,1.1,69,0.00,,,0.00,WUHU21636XXSP,2013-09-29 09:46:00,
2013-09-29 04:56:00,48.2,38.3,30.21,WSW,247,0.0,1.1,69,0.00,,,0.00,WUHU21636XXSP,2013-09-29 09:56:00,
2013-09-29 05:06:00,48.0,38.1,30.21,WSW,247,0.0,0.0,69,0.00,,,0.00,WUHU21636XXSP,2013-09-29 10:06:00,
2013-09-29 05:16:00,48.0,38.1,30.20,WSW,247,0.0,0.0,69,0.00,,,0.00,WUHU21636XXSP,2013-09-29 10:16:00,
2013-09-29 05:26:00,47.8,38.1,30.20,WSW,247,2.9,2.9,69,0.00,,,0.00,WUHU21636XXSP,2013-09-29 10:26:00,
2013-09-29 05:36:00,47.8,38.1,30.20,WSW,247,0.0,2.9,70,0.00,,,0.00,WUHU21636XXSP,2013-09-29 10:36:00,
2013-09-29 05:46:00,47.5,38.1,30.20,WSW,247,0.0,0.6,70,0.00,,,0.00,WUHU21636XXSP,2013-09-29 10:46:00,
2013-09-29 05:56:00,47.5,38.1,30.20,WSW,247,0.0,0.4,70,0.00,,,0.00,WUHU21636XXSP,2013-09-29 10:56:00,
2013-09-29 06:06:00,47.3,37.9,30.20,WSW,247,0.0,0.0,70,0.00,,,0.00,WUHU21636XXSP,2013-09-29 11:06:00,
2013-09-29 06:16:00,47.3,37.9,30.20,WSW,247,0.0,0.0,70,0.00,,,0.00,WUHU21636XXSP,2013-09-29 11:16:00,
2013-09-29 06:26:00,47.3,37.9,30.20,WSW,247,0.0,0.0,71,0.00,,,0.00,WUHU21636XXSP,2013-09-29 11:26:00,
2013-09-29 06:36:00,47.3,37.9,30.21,WSW,247,0.0,0.0,72,0.00,,,0.00,WUHU21636XXSP,2013-09-29 11:36:00,
2013-09-29 06:46:00,47.1,38.5,30.20,WSW,247,0.0,0.0,72,0.00,,,0.00,WUHU21636XXSP,2013-09-29 11:46:00,
2013-09-29 06:56:00,46.9,38.3,30.20,WSW,247,0.0,0.0,72,0.00,,,0.00,WUHU21636XXSP,2013-09-29 11:56:00,
2013-09-29 07:06:00,46.8,38.5,30.20,WSW,247,0.0,0.0,73,0.00,,,0.00,WUHU21636XXSP,2013-09-29 12:06:00,
2013-09-29 07:16:00,46.6,38.3,30.20,WSW,247,0.0,0.0,73,0.00,,,0.00,WUHU21636XXSP,2013-09-29 12:16:00,
2013-09-29 07:26:00,46.6,38.7,30.20,WSW,247,0.0,0.0,74,0.00,,,0.00,WUHU21636XXSP,2013-09-29 12:26:00,
2013-09-29 07:36:00,46.4,38.5,30.20,WSW,247,0.0,0.0,74,0.00,,,0.00,WUHU21636XXSP,2013-09-29 12:36:00,
2013-09-29 07:46:00,46.0,38.1,30.20,WSW,247,0.0,0.0,74,0.00,,,0.00,WUHU21636XXSP,2013-09-29 12:46:00,
2013-09-29 07:56:00,46.0,38.1,30.20,WSW,247,0.0,0.0,75,0.00,,,0.00,WUHU21636XXSP,2013-09-29 12:56:00,
2013-09-29 08:06:00,46.0,38.1,30.19,WSW,247,0.0,0.0,75,0.00,,,0.00,WUHU21636XXSP,2013-09-29 13:06:00,
2013-09-29 08:16:00,46.0,38.1,30.19,WSW,247,0.0,0.0,74,0.00,,,0.00,WUHU21636XXSP,2013-09-29 13:16:00,
2013-09-29 08:26:00,45.7,37.8,30.19,WSW,247,0.0,0.0,74,0.00,,,0.00,WUHU21636XXSP,2013-09-29 13:26:00,
2013-09-29 08:36:00,45.5,37.9,30.19,WSW,247,0.0,0.0,75,0.00,,,0.00,WUHU21636XXSP,2013-09-29 13:36:00,
2013-09-29 08:46:00,45.7,38.5,30.19,WSW,247,0.0,0.0,76,0.00,,,0.00,WUHU21636XXSP,2013-09-29 13:46:00,
2013-09-29 08:56:00,45.3,38.1,30.19,WSW,247,0.0,0.0,76,0.00,,,0.00,WUHU21636XXSP,2013-09-29 13:56:00,
2013-09-29 09:06:00,45.7,38.8,30.19,WSW,247,0.0,0.0,77,0.00,,,0.00,WUHU21636XXSP,2013-09-29 14:06:00,
2013-09-29 09:16:00,46.2,39.7,30.19,WSW,247,0.0,0.0,78,0.00,,,0.00,WUHU21636XXSP,2013-09-29 14:16:00,
2013-09-29 09:26:00,47.1,40.1,30.19,WSW,247,0.0,0.0,77,0.00,,,0.00,WUHU21636XXSP,2013-09-29 14:26:00,
2013-09-29 09:36:00,47.8,41.2,30.19,SW,225,0.0,0.0,78,0.00,,,0.00,WUHU21636XXSP,2013-09-29 14:36:00,
2013-09-29 09:46:00,49.1,42.4,30.19,SW,225,2.9,4.0,78,0.00,,,0.00,WUHU21636XXSP,2013-09-29 14:46:00,
2013-09-29 09:56:00,50.2,43.2,30.18,WSW,247,0.4,6.2,77,0.00,,,0.00,WUHU21636XXSP,2013-09-29 14:56:00,
2013-09-29 10:06:00,51.6,43.2,30.18,SW,225,0.6,2.9,73,0.00,,,0.00,WUHU21636XXSP,2013-09-29 15:06:00,
2013-09-29 10:16:00,53.1,43.5,30.18,WSW,247,4.0,6.4,70,0.00,,,0.00,WUHU21636XXSP,2013-09-29 15:16:00,
2013-09-29 10:26:00,54.7,43.9,30.18,WSW,247,3.3,6.2,67,0.00,,,0.00,WUHU21636XXSP,2013-09-29 15:26:00,
2013-09-29 10:36:00,55.2,44.4,30.18,WSW,247,0.0,3.5,67,0.00,,,0.00,WUHU21636XXSP,2013-09-29 15:36:00,
2013-09-29 10:47:00,56.3,45.0,30.18,WSW,247,0.0,4.0,66,0.00,,,0.00,WUHU21636XXSP,2013-09-29 15:47:00,
2013-09-29 10:57:00,57.7,45.5,30.17,SW,225,3.5,3.5,64,0.00,,,0.00,WUHU21636XXSP,2013-09-29 15:57:00,
2013-09-29 11:07:00,58.6,46.0,30.17,WSW,247,1.5,3.5,63,0.00,,,0.00,WUHU21636XXSP,2013-09-29 16:07:00,
2013-09-29 11:17:00,59.7,45.9,30.17,WSW,247,0.0,3.3,60,0.00,,,0.00,WUHU21636XXSP,2013-09-29 16:17:00,
2013-09-29 11:27:00,60.6,46.2,30.16,West,270,0.6,1.7,59,0.00,,,0.00,WUHU21636XXSP,2013-09-29 16:27:00,
2013-09-29 11:37:00,62.2,47.1,30.16,SW,225,2.0,8.2,58,0.00,,,0.00,WUHU21636XXSP,2013-09-29 16:37:00,
2013-09-29 11:47:00,63.1,47.5,30.15,SW,225,0.0,4.6,57,0.00,,,0.00,WUHU21636XXSP,2013-09-29 16:47:00,
2013-09-29 11:57:00,64.4,47.7,30.15,West,270,0.0,4.4,55,0.00,,,0.00,WUHU21636XXSP,2013-09-29 16:57:00,
2013-09-29 12:07:00,65.3,48.0,30.14,SSE,157,4.9,4.9,54,0.00,,,0.00,WUHU21636XXSP,2013-09-29 17:07:00,
2013-09-29 12:17:00,67.8,46.8,30.13,SSW,202,7.8,12.5,47,0.00,,,0.00,WUHU21636XXSP,2013-09-29 17:17:00,
2013-09-29 12:27:00,69.6,46.0,30.13,SSW,202,11.6,16.5,43,0.00,,,0.00,WUHU21636XXSP,2013-09-29 17:27:00,
2013-09-29 12:37:00,71.2,45.0,30.12,SSW,202,10.5,19.6,39,0.00,,,0.00,WUHU21636XXSP,2013-09-29 17:37:00,
2013-09-29 12:47:00,72.5,44.6,30.12,SSW,202,10.2,20.8,37,0.00,,,0.00,WUHU21636XXSP,2013-09-29 17:47:00,
2013-09-29 12:57:00,73.6,43.2,30.12,SSE,157,12.0,22.3,33,0.00,,,0.00,WUHU21636XXSP,2013-09-29 17:57:00,
2013-09-29 13:07:00,74.1,43.7,30.11,SSW,202,12.9,24.8,34,0.00,,,0.00,WUHU21636XXSP,2013-09-29 18:07:00,
2013-09-29 13:17:00,74.7,41.2,30.10,SSW,202,15.4,25.5,30,0.00,,,0.00,WUHU21636XXSP,2013-09-29 18:17:00,
2013-09-29 13:27:00,75.4,43.3,30.10,SW,225,9.1,24.6,32,0.00,,,0.00,WUHU21636XXSP,2013-09-29 18:27:00,
2013-09-29 13:37:00,76.3,43.3,30.09,SSW,202,14.9,25.7,31,0.00,,,0.00,WUHU21636XXSP,2013-09-29 18:37:00,
2013-09-29 13:47:00,76.6,41.9,30.09,SSW,202,11.1,26.8,29,0.00,,,0.00,WUHU21636XXSP,2013-09-29 18:47:00,
2013-09-29 13:57:00,76.8,43.2,30.08,SW,225,14.7,22.8,30,0.00,,,0.00,WUHU21636XXSP,2013-09-29 18:57:00,
2013-09-29 14:07:00,77.4,45.1,30.07,SSW,202,14.7,25.0,32,0.00,,,0.00,WUHU21636XXSP,2013-09-29 19:07:00,
2013-09-29 14:17:00,77.5,43.7,30.07,South,180,13.8,27.5,30,0.00,,,0.00,WUHU21636XXSP,2013-09-29 19:17:00,
2013-09-29 14:27:00,77.9,44.1,30.06,SW,225,13.8,26.6,30,0.00,,,0.00,WUHU21636XXSP,2013-09-29 19:27:00,
2013-09-29 14:37:00,78.4,44.4,30.06,SSE,157,8.2,25.5,30,0.00,,,0.00,WUHU21636XXSP,2013-09-29 19:37:00,
2013-09-29 14:47:00,78.8,44.8,30.05,SSW,202,11.1,22.5,30,0.00,,,0.00,WUHU21636XXSP,2013-09-29 19:47:00,
2013-09-29 14:57:00,79.2,44.1,30.04,SSW,202,11.6,29.5,29,0.00,,,0.00,WUHU21636XXSP,2013-09-29 19:57:00,
2013-09-29 15:07:00,79.5,44.2,30.04,SSW,202,10.5,24.1,29,0.00,,,0.00,WUHU21636XXSP,2013-09-29 20:07:00,
2013-09-29 15:17:00,79.9,42.6,30.03,South,180,11.1,27.0,27,0.00,,,0.00,WUHU21636XXSP,2013-09-29 20:17:00,
2013-09-29 15:27:00,80.2,43.9,30.03,SSW,202,11.6,27.7,28,0.00,,,0.00,WUHU21636XXSP,2013-09-29 20:27:00,
2013-09-29 15:37:00,80.2,43.9,30.03,SSW,202,14.7,26.6,28,0.00,,,0.00,WUHU21636XXSP,2013-09-29 20:37:00,
2013-09-29 15:47:00,80.4,44.1,30.02,SSE,157,12.3,28.1,28,0.00,,,0.00,WUHU21636XXSP,2013-09-29 20:47:00,
2013-09-29 15:57:00,80.8,43.3,30.02,South,180,11.1,22.5,27,0.00,,,0.00,WUHU21636XXSP,2013-09-29 20:57:00,
2013-09-29 16:07:00,81.3,44.8,30.02,South,180,12.9,22.5,28,0.00,,,0.00,WUHU21636XXSP,2013-09-29 21:07:00,
2013-09-29 16:17:00,81.5,43.9,30.02,SSW,202,10.9,22.3,27,0.00,,,0.00,WUHU21636XXSP,2013-09-29 21:17:00,
2013-09-29 16:27:00,81.5,45.0,30.02,South,180,12.3,24.3,28,0.00,,,0.00,WUHU21636XXSP,2013-09-29 21:27:00,
2013-09-29 16:37:00,81.7,45.1,30.02,SSE,157,15.2,23.2,28,0.00,,,0.00,WUHU21636XXSP,2013-09-29 21:37:00,
2013-09-29 16:47:00,81.9,44.2,30.02,South,180,11.8,23.0,27,0.00,,,0.00,WUHU21636XXSP,2013-09-29 21:47:00,
2013-09-29 16:57:00,81.5,45.0,30.01,SSE,157,9.8,22.5,28,0.00,,,0.00,WUHU21636XXSP,2013-09-29 21:57:00,
2013-09-29 17:07:00,81.3,44.8,30.02,SSW,202,10.2,24.8,27,0.00,,,0.00,WUHU21636XXSP,2013-09-29 22:07:00,
2013-09-29 17:17:00,81.1,44.6,30.02,South,180,10.5,25.9,28,0.00,,,0.00,WUHU21636XXSP,2013-09-29 22:17:00,
2013-09-29 17:27:00,81.0,44.6,30.01,South,180,11.6,21.0,28,0.00,,,0.00,WUHU21636XXSP,2013-09-29 22:27:00,
2013-09-29 17:37:00,80.8,45.5,30.01,SSW,202,9.6,25.2,29,0.00,,,0.00,WUHU21636XXSP,2013-09-29 22:37:00,
2013-09-29 17:47:00,80.2,43.9,30.01,SSW,202,14.3,22.3,28,0.00,,,0.00,WUHU21636XXSP,2013-09-29 22:47:00,
2013-09-29 17:57:00,79.9,45.7,30.01,SSW,202,10.2,21.9,30,0.00,,,0.00,WUHU21636XXSP,2013-09-29 22:57:00,
2013-09-29 18:07:00,79.0,44.8,30.00,SSW,202,10.0,22.8,30,0.00,,,0.00,WUHU21636XXSP,2013-09-29 23:07:00,
2013-09-29 18:17:00,78.6,45.3,30.00,South,180,11.8,26.8,31,0.00,,,0.00,WUHU21636XXSP,2013-09-29 23:17:00,
2013-09-29 18:27:00,77.9,45.5,30.00,South,180,11.1,20.5,32,0.00,,,0.00,WUHU21636XXSP,2013-09-29 23:27:00,
2013-09-29 18:37:00,77.2,45.7,29.99,SSW,202,8.5,18.1,33,0.00,,,0.00,WUHU21636XXSP,2013-09-29 23:37:00,
2013-09-29 18:47:00,76.3,45.0,30.00,SSW,202,9.1,19.0,33,0.00,,,0.00,WUHU21636XXSP,2013-09-29 23:47:00,
2013-09-29 18:57:00,75.4,44.8,30.00,SSW,202,4.6,20.1,34,0.00,,,0.00,WUHU21636XXSP,2013-09-29 23:57:00,
2013-09-29 19:07:00,74.3,44.6,30.00,SSW,202,10.9,18.3,35,0.00,,,0.00,WUHU21636XXSP,2013-09-30 00:07:00,
2013-09-29 19:17:00,73.2,45.9,30.00,South,180,4.0,15.2,38,0.00,,,0.00,WUHU21636XXSP,2013-09-30 00:17:00,
2013-09-29 19:27:00,72.1,45.7,30.00,SSE,157,4.9,10.7,39,0.00,,,0.00,WUHU21636XXSP,2013-09-30 00:27:00,
2013-09-29 19:37:00,71.2,45.7,30.00,South,180,8.7,15.6,40,0.00,,,0.00,WUHU21636XXSP,2013-09-30 00:37:00,
2013-09-29 19:47:00,70.3,45.5,30.00,South,180,7.8,15.8,41,0.00,,,0.00,WUHU21636XXSP,2013-09-30 00:47:00,
2013-09-29 19:57:00,69.4,45.9,30.00,South,180,5.1,11.8,43,0.00,,,0.00,WUHU21636XXSP,2013-09-30 00:57:00,
2013-09-29 20:07:00,68.7,45.7,30.00,South,180,4.9,13.8,44,0.00,,,0.00,WUHU21636XXSP,2013-09-30 01:07:00,
2013-09-29 20:17:00,68.2,45.3,30.00,SSW,202,7.6,13.4,44,0.00,,,0.00,WUHU21636XXSP,2013-09-30 01:17:00,
2013-09-29 20:27:00,67.5,45.1,30.00,South,180,6.9,13.1,45,0.00,,,0.00,WUHU21636XXSP,2013-09-30 01:27:00,
2013-09-29 20:37:00,66.7,45.1,30.00,South,180,5.1,14.5,46,0.00,,,0.00,WUHU21636XXSP,2013-09-30 01:37:00,
2013-09-29 20:47:00,66.4,45.5,30.01,SSW,202,8.5,17.8,47,0.00,,,0.00,WUHU21636XXSP,2013-09-30 01:47:00,
2013-09-29 20:57:00,66.0,45.7,30.01,SSW,202,10.9,17.6,48,0.00,,,0.00,WUHU21636XXSP,2013-09-30 01:57:00,
2013-09-29 21:07:00,65.5,45.1,30.00,South,180,7.6,15.2,48,0.00,,,0.00,WUHU21636XXSP,2013-09-30 02:07:00,
2013-09-29 21:17:00,64.9,45.1,30.01,South,180,8.9,15.6,49,0.00,,,0.00,WUHU21636XXSP,2013-09-30 02:17:00,
2013-09-29 21:27:00,64.6,45.5,30.01,South,180,4.6,15.6,50,0.00,,,0.00,WUHU21636XXSP,2013-09-30 02:27:00,
2013-09-29 21:37:00,64.0,45.3,30.01,South,180,9.1,17.4,51,0.00,,,0.00,WUHU21636XXSP,2013-09-30 02:37:00,
2013-09-29 21:47:00,63.7,45.5,30.01,South,180,10.7,14.0,52,0.00,,,0.00,WUHU21636XXSP,2013-09-30 02:47:00,
2013-09-29 21:57:00,63.1,45.1,30.00,South,180,5.3,15.6,52,0.00,,,0.00,WUHU21636XXSP,2013-09-30 02:57:00,
2013-09-29 22:07:00,62.8,45.3,30.00,South,180,8.0,14.9,53,0.00,,,0.00,WUHU21636XXSP,2013-09-30 03:07:00,
2013-09-29 22:17:00,62.4,45.0,30.01,SSW,202,7.1,13.4,53,0.00,,,0.00,WUHU21636XXSP,2013-09-30 03:17:00,
2013-09-29 22:27:00,62.2,44.8,30.01,SSW,202,6.4,8.5,53,0.00,,,0.00,WUHU21636XXSP,2013-09-30 03:27:00,
2013-09-29 22:37:00,62.1,44.6,30.01,SSW,202,3.1,6.4,53,0.00,,,0.00,WUHU21636XXSP,2013-09-30 03:37:00,
2013-09-29 22:47:00,61.9,45.0,30.02,South,180,5.1,11.1,54,0.00,,,0.00,WUHU21636XXSP,2013-09-30 03:47:00,
2013-09-29 22:57:00,61.5,44.6,30.02,South,180,0.0,5.3,54,0.00,,,0.00,WUHU21636XXSP,2013-09-30 03:57:00,
2013-09-29 23:07:00,61.3,45.0,30.02,SSW,202,0.0,3.8,54,0.00,,,0.00,WUHU21636XXSP,2013-09-30 04:07:00,
2013-09-29 23:17:00,61.3,45.0,30.02,SSE,157,4.9,4.9,55,0.00,,,0.00,WUHU21636XXSP,2013-09-30 04:17:00,
2013-09-29 23:27:00,61.0,44.6,30.02,South,180,2.6,4.9,55,0.00,,,0.00,WUHU21636XXSP,2013-09-30 04:27:00,
2013-09-29 23:37:00,60.8,44.4,30.02,South,180,3.1,6.7,55,0.00,,,0.00,WUHU21636XXSP,2013-09-30 04:37:00,
2013-09-29 23:47:00,60.4,44.6,30.02,South,180,4.9,8.7,56,0.00,,,0.00,WUHU21636XXSP,2013-09-30 04:47:00,
2013-09-29 23:57:00,60.3,44.8,30.02,SSE,157,0.0,4.9,57,0.00,,,0.00,WUHU21636XXSP,2013-09-30 04:57:00,